Chemroad Wing — 3EAB8 — position and weather

sailwx.info

Track history (hours):
 
Tides and Currents Weather Stations Pressure Air Temp Water Temp Dewpoint Dewpoint Depression Visibility Wind Speed Wind Dir Waves Ship Positions

Chemroad Wing

Last reported at 2017-Aug-22 10:35 UTC. Time now 2017-Aug-22 11:09 UTC.
Position N 48°50' W 005°56'.

Length 170 m; draft 6.7 m.

Type: Ship. MMSI: 357740000.

Date/timePositionNaut miles runAvg speedWind from/ knotsBaromVisibWave heightAir tempDewpointWater temp
2017-Aug-22 10:35N 48°50' W 005°56'415.3
2017-Aug-22 10:18N 48°53' W 005°50'515.7
2017-Aug-22 10:00N 48°55' W 005°44'815.6
2017-Aug-22 09:30N 48°59' W 005°34'815.4
2017-Aug-22 09:01N 49°03' W 005°24'1414.9
2017-Aug-22 08:06N 49°10' W 005°06'514.5
2017-Aug-22 07:45N 49°13' W 004°60'414.1
2017-Aug-22 07:28N 49°15' W 004°54'2012.9
2017-Aug-22 05:56N 49°25' W 004°28'812.2
2017-Aug-22 05:17N 49°29' W 004°17'1012.3
2017-Aug-22 04:30N 49°34' W 004°05'612.7
2017-Aug-22 04:00N 49°37' W 003°56'713.3
2017-Aug-22 03:31N 49°40' W 003°48'814.2
2017-Aug-22 02:58N 49°44' W 003°37'715.1
2017-Aug-22 02:30N 49°47' W 003°28'815.6
2017-Aug-22 02:00N 49°51' W 003°18'816.3
2017-Aug-22 01:30N 49°56' W 003°07'816.7
2017-Aug-22 01:00N 49°59' W 002°55'816.8
2017-Aug-22 00:30N 50°02' W 002°43'816.5
2017-Aug-22 00:00N 50°04' W 002°30'815.8
2017-Aug-21 23:30N 50°06' W 002°19'714.9
2017-Aug-21 23:01N 50°08' W 002°08'713.8
2017-Aug-21 22:30N 50°10' W 001°57'612.8
2017-Aug-21 22:00N 50°12' W 001°47'612.0
2017-Aug-21 21:30N 50°13' W 001°38'611.4
2017-Aug-21 21:00N 50°15' W 001°30'510.8
2017-Aug-21 20:30N 50°16' W 001°21'510.7
2017-Aug-21 20:00N 50°17' W 001°13'510.2
2017-Aug-21 19:30N 50°19' W 001°06'510.4
2017-Aug-21 19:00N 50°20' W 000°58'611.7
2017-Aug-21 18:30N 50°21' W 000°49'612.6
2017-Aug-21 18:00N 50°23' W 000°39'713.4
2017-Aug-21 17:30N 50°25' W 000°29'714.4
2017-Aug-21 17:00N 50°27' W 000°18'815.1
2017-Aug-21 16:31N 50°29' W 000°07'815.5
2017-Aug-21 16:00N 50°31' E 000°05'915.9
2017-Aug-21 15:26N 50°33' E 000°19'715.9
2017-Aug-21 15:00N 50°35' E 000°29'815.4
2017-Aug-21 14:30N 50°39' E 000°40'715.1
2017-Aug-21 14:01N 50°42' E 000°50'714.3
2017-Aug-21 13:31N 50°46' E 000°59'1712.7
2017-Aug-21 12:08N 50°59' E 001°19'311.2
2017-Aug-21 11:54N 51°01' E 001°21'411.2
2017-Aug-21 11:30N 51°04' E 001°27'611.7
2017-Aug-21 11:00N 51°07' E 001°34'612.4
2017-Aug-21 10:30N 51°11' E 001°42'612.9
2017-Aug-21 10:01N 51°16' E 001°48'714.4
2017-Aug-21 09:30N 51°23' E 001°53'815.6
2017-Aug-21 09:00N 51°29' E 002°00'815.9
2017-Aug-21 08:30N 51°35' E 002°09'816.1
2017-Aug-21 08:00N 51°41' E 002°18'4920.2
2017-Aug-21 05:34N 52°03' E 003°29'0 0.0
2017-Aug-21 05:29N 52°03' E 003°29'0 0.0
2017-Aug-21 05:00N 52°03' E 003°29'0 0.0
2017-Aug-21 04:30N 52°03' E 003°29'612.3
2017-Aug-21 04:00N 52°03' E 003°39'713.2
2017-Aug-21 03:30N 52°03' E 003°50'4 7.9
2017-Aug-21 03:00N 52°02' E 003°56'612.1
2017-Aug-21 02:30N 51°59' E 004°05'611.3
2017-Aug-21 02:00N 51°56' E 004°13'5 9.6
2017-Aug-21 01:30N 51°54' E 004°19'1 1.8
2017-Aug-21 01:00N 51°53' E 004°21'0 0.0
2017-Aug-21 00:30N 51°53' E 004°21'0 0.0
2017-Aug-21 00:00N 51°53' E 004°21'0 0.0
2017-Aug-20 23:30N 51°53' E 004°21'0 0.0
2017-Aug-20 23:00N 51°53' E 004°21'0 0.0
2017-Aug-20 22:30N 51°53' E 004°21'0 0.0
2017-Aug-20 22:00N 51°53' E 004°21'0 0.0
2017-Aug-20 21:30N 51°53' E 004°21'0 0.0
2017-Aug-20 21:00N 51°53' E 004°21'0 0.0
2017-Aug-20 20:30N 51°53' E 004°21'0 0.0
2017-Aug-20 20:00N 51°53' E 004°21'0 0.0
2017-Aug-20 19:30N 51°53' E 004°21'0 0.0
2017-Aug-20 19:00N 51°53' E 004°21'0 0.0
2017-Aug-20 18:30N 51°53' E 004°21'0 0.0
2017-Aug-20 18:00N 51°53' E 004°21'0 0.0
2017-Aug-20 17:30N 51°53' E 004°21'0 0.0
2017-Aug-20 17:00N 51°53' E 004°21'0 0.0
2017-Aug-20 16:29N 51°53' E 004°21'0 0.0
2017-Aug-20 16:00N 51°53' E 004°21'0 0.0
2017-Aug-20 15:30N 51°53' E 004°21'0 0.0
2017-Aug-20 15:00N 51°53' E 004°21'0 0.0
2017-Aug-20 14:30N 51°53' E 004°21'0 0.0
2017-Aug-20 14:00N 51°53' E 004°21'0 0.0
2017-Aug-20 13:30N 51°53' E 004°21'0 0.0
2017-Aug-20 13:00N 51°53' E 004°21'0 0.0
2017-Aug-20 12:30N 51°53' E 004°21'0 0.0
2017-Aug-20 12:00N 51°53' E 004°21'0 0.0
2017-Aug-20 11:30N 51°53' E 004°21'0 0.0
2017-Aug-20 11:00N 51°53' E 004°21'0 0.0
2017-Aug-20 10:30N 51°53' E 004°21'0 0.0
2017-Aug-20 10:00N 51°53' E 004°21'0 0.0
2017-Aug-20 09:30N 51°53' E 004°21'0 0.0
2017-Aug-20 09:00N 51°53' E 004°21'0 0.0
2017-Aug-20 08:30N 51°53' E 004°21'0 0.0
2017-Aug-20 08:00N 51°53' E 004°21'0 0.0
2017-Aug-20 07:30N 51°53' E 004°21'0 0.0
2017-Aug-20 07:00N 51°53' E 004°21'0 0.0
2017-Aug-20 06:30N 51°53' E 004°21'0 0.0
2017-Aug-20 06:00N 51°53' E 004°21'0 0.0
2017-Aug-20 05:30N 51°53' E 004°21'0 0.0
2017-Aug-20 05:00N 51°53' E 004°21'0 0.0
2017-Aug-20 04:30N 51°53' E 004°21'0 0.0
2017-Aug-20 03:59N 51°53' E 004°21'0 0.0
2017-Aug-20 03:30N 51°53' E 004°21'0 0.0
2017-Aug-20 03:00N 51°53' E 004°21'0 0.0
2017-Aug-20 02:30N 51°53' E 004°21'0 0.0
2017-Aug-20 02:00N 51°53' E 004°21'0 0.0
2017-Aug-20 01:30N 51°53' E 004°21'0 0.0
2017-Aug-20 01:00N 51°53' E 004°21'0 0.0
2017-Aug-20 00:30N 51°53' E 004°21'0 0.0
2017-Aug-20 00:00N 51°53' E 004°21'0 0.0
2017-Aug-19 23:30N 51°53' E 004°21'0 0.0
2017-Aug-19 23:00N 51°53' E 004°21'0 0.0
2017-Aug-19 22:30N 51°53' E 004°21'0 0.0
2017-Aug-19 22:00N 51°53' E 004°21'0 0.0
2017-Aug-19 21:30N 51°53' E 004°21'0 0.0
2017-Aug-19 21:00N 51°53' E 004°21'0 0.0
2017-Aug-19 20:30N 51°53' E 004°21'0 0.0
2017-Aug-19 20:00N 51°53' E 004°21'0 0.0
2017-Aug-19 19:30N 51°53' E 004°21'0 0.0
2017-Aug-19 19:00N 51°53' E 004°21'0 0.0
2017-Aug-19 18:30N 51°53' E 004°21'0 0.0
2017-Aug-19 18:00N 51°53' E 004°21'0 0.0
2017-Aug-19 17:30N 51°53' E 004°21'0 0.0
2017-Aug-19 17:00N 51°53' E 004°21'0 0.0
2017-Aug-19 16:30N 51°53' E 004°21'0 0.0
2017-Aug-19 16:00N 51°53' E 004°21'0 0.0
2017-Aug-19 15:30N 51°53' E 004°21'0 0.0
2017-Aug-19 15:00N 51°53' E 004°21'0 0.0
2017-Aug-19 14:00N 51°53' E 004°21'0 0.0
2017-Aug-19 13:30N 51°53' E 004°21'0 0.0
2017-Aug-19 13:00N 51°53' E 004°21'0 0.0
2017-Aug-19 12:30N 51°53' E 004°21'0 0.0
2017-Aug-19 12:00N 51°53' E 004°21'0 0.0
2017-Aug-19 11:30N 51°53' E 004°21'0 0.0
2017-Aug-19 11:00N 51°53' E 004°21'0 0.0
2017-Aug-19 10:30N 51°53' E 004°21'0 0.0
2017-Aug-19 10:00N 51°53' E 004°21'0 0.0
2017-Aug-19 09:30N 51°53' E 004°21'0 0.0
2017-Aug-19 09:00N 51°53' E 004°21'0 0.0
2017-Aug-19 08:31N 51°53' E 004°21'2 3.9
2017-Aug-19 08:01N 51°54' E 004°17'5 9.1
2017-Aug-19 07:31N 51°56' E 004°12'5 9.2
2017-Aug-19 07:01N 51°59' E 004°05'510.5
2017-Aug-19 06:31N 51°60' E 003°57'5 9.4
2017-Aug-19 06:01N 51°59' E 003°49'4 8.6
2017-Aug-19 05:31N 51°58' E 003°42'4 7.6
2017-Aug-19 05:00N 51°57' E 003°37'3 6.0
2017-Aug-19 04:31N 51°56' E 003°32'3 5.8
2017-Aug-19 04:00N 51°55' E 003°27'17 7.9
2017-Aug-19 01:52N 51°51' E 003°01'614.0
2017-Aug-19 01:29N 51°49' E 002°53'714.2
2017-Aug-19 00:58N 51°47' E 002°41'814.2
2017-Aug-19 00:26N 51°43' E 002°32'614.9
2017-Aug-19 00:00N 51°38' E 002°25'815.2
2017-Aug-18 23:30N 51°33' E 002°17'815.5
2017-Aug-18 23:00N 51°27' E 002°08'5 9.5
2017-Aug-18 22:30N 51°22' E 002°11'510.8
2017-Aug-18 22:00N 51°21' E 002°19'510.8
2017-Aug-18 21:30N 51°22' E 002°28'510.7
2017-Aug-18 21:01N 51°23' E 002°36'510.6
2017-Aug-18 20:30N 51°23' E 002°45'510.0
2017-Aug-18 20:01N 51°23' E 002°53'611.5
2017-Aug-18 19:30N 51°24' E 003°02'611.4
2017-Aug-18 19:00N 51°24' E 003°11'611.8
2017-Aug-18 18:31N 51°25' E 003°20'611.4
2017-Aug-18 18:01N 51°25' E 003°29'4 8.2
2017-Aug-18 17:31N 51°26' E 003°36'4 8.1
2017-Aug-18 17:00N 51°25' E 003°42'611.8
2017-Aug-18 16:30N 51°21' E 003°48'612.1
2017-Aug-18 16:01N 51°24' E 003°57'3 6.3
2017-Aug-18 15:31N 51°24' E 004°02'611.0
2017-Aug-18 15:00N 51°24' E 004°11'611.1
2017-Aug-18 14:31N 51°19' E 004°16'4 3.6
2017-Aug-18 13:30N 51°17' E 004°20'0 0.8
2017-Aug-18 13:00N 51°16' E 004°20'2 3.2
2017-Aug-18 12:30N 51°15' E 004°21'0 0.1
2017-Aug-18 11:57N 51°15' E 004°21'0 0.0
2017-Aug-18 11:30N 51°15' E 004°21'0 0.0
2017-Aug-18 11:00N 51°15' E 004°21'0 0.0
2017-Aug-18 10:30N 51°15' E 004°21'0 0.0
2017-Aug-18 10:00N 51°15' E 004°21'0 0.0
2017-Aug-18 09:30N 51°15' E 004°21'0 0.0
2017-Aug-18 09:00N 51°15' E 004°21'0 0.0
2017-Aug-18 08:30N 51°15' E 004°21'0 0.0
2017-Aug-18 08:00N 51°15' E 004°21'0 0.0
2017-Aug-18 07:30N 51°15' E 004°21'0 0.0
2017-Aug-18 07:00N 51°15' E 004°21'0 0.0
2017-Aug-18 06:30N 51°15' E 004°21'0 0.0
2017-Aug-18 06:00N 51°15' E 004°21'0 0.0
2017-Aug-18 05:30N 51°15' E 004°21'0 0.0
2017-Aug-18 05:00N 51°15' E 004°21'0 0.0
2017-Aug-18 04:30N 51°15' E 004°21'0 0.0
2017-Aug-18 04:00N 51°15' E 004°21'0 0.0
2017-Aug-18 03:30N 51°15' E 004°21'0 0.0
2017-Aug-18 03:00N 51°15' E 004°21'0 0.0
2017-Aug-18 02:30N 51°15' E 004°21'0 0.0
2017-Aug-18 02:00N 51°15' E 004°21'0 0.0
2017-Aug-18 01:30N 51°15' E 004°21'0 0.0
2017-Aug-18 01:00N 51°15' E 004°21'0 0.0
2017-Aug-18 00:30N 51°15' E 004°21'0 0.0
2017-Aug-18 00:00N 51°15' E 004°21'0 0.0
2017-Aug-17 23:30N 51°15' E 004°21'0 0.0
2017-Aug-17 23:00N 51°15' E 004°21'0 0.0
2017-Aug-17 22:30N 51°15' E 004°21'0 0.0
2017-Aug-17 22:00N 51°15' E 004°21'0 0.0
2017-Aug-17 21:30N 51°15' E 004°21'0 0.0
2017-Aug-17 21:00N 51°15' E 004°21'0 0.0
2017-Aug-17 20:30N 51°15' E 004°21'0 0.0
2017-Aug-17 20:00N 51°15' E 004°21'0 0.0
2017-Aug-17 19:30N 51°15' E 004°21'0 0.0
2017-Aug-17 19:00N 51°15' E 004°21'0 0.0
2017-Aug-17 18:30N 51°15' E 004°21'0 0.0
2017-Aug-17 18:00N 51°15' E 004°21'0 0.0
2017-Aug-17 17:30N 51°15' E 004°21'0 0.0
2017-Aug-17 17:00N 51°15' E 004°21'0 0.0
2017-Aug-17 16:30N 51°15' E 004°21'0 0.0
2017-Aug-17 16:00N 51°15' E 004°21'0 0.0
2017-Aug-17 15:30N 51°15' E 004°21'0 0.1
2017-Aug-17 15:00N 51°15' E 004°21'1 1.0
2017-Aug-17 14:28N 51°15' E 004°22'0 0.0
2017-Aug-17 13:55N 51°15' E 004°22'0 0.0
2017-Aug-17 13:25N 51°15' E 004°22'0 0.0
2017-Aug-17 12:58N 51°15' E 004°22'0 0.0
2017-Aug-17 12:28N 51°15' E 004°22'0 0.0
2017-Aug-17 11:58N 51°15' E 004°22'0 0.0
2017-Aug-17 11:22N 51°15' E 004°22'0 0.0
2017-Aug-17 10:55N 51°15' E 004°22'0 0.0
2017-Aug-17 10:28N 51°15' E 004°22'0 0.0
2017-Aug-17 09:58N 51°15' E 004°22'0 0.0
2017-Aug-17 09:22N 51°15' E 004°22'0 0.0
2017-Aug-17 08:55N 51°15' E 004°22'0 0.0
2017-Aug-17 08:28N 51°15' E 004°22'0 0.0
2017-Aug-17 07:58N 51°15' E 004°22'0 0.0
2017-Aug-17 07:25N 51°15' E 004°22'0 0.0
2017-Aug-17 06:55N 51°15' E 004°22'0 0.0
2017-Aug-17 06:19N 51°15' E 004°22'0 0.0
2017-Aug-17 05:58N 51°15' E 004°22'0 0.0
2017-Aug-17 05:25N 51°15' E 004°22'0 0.0
2017-Aug-17 04:58N 51°15' E 004°22'0 0.0
2017-Aug-17 04:28N 51°15' E 004°22'0 0.0
2017-Aug-17 03:58N 51°15' E 004°22'0 0.0
2017-Aug-17 03:25N 51°15' E 004°22'0 0.0
2017-Aug-17 02:58N 51°15' E 004°22'0 0.0
2017-Aug-17 02:28N 51°15' E 004°22'0 0.0
2017-Aug-17 01:58N 51°15' E 004°22'0 0.0
2017-Aug-17 01:28N 51°15' E 004°22'0 0.0
2017-Aug-17 00:58N 51°15' E 004°22'0 0.0
2017-Aug-17 00:28N 51°15' E 004°22'0 0.0
2017-Aug-17 00:00N 51°15' E 004°22'1 2.4
2017-Aug-16 23:30N 51°16' E 004°20'3 6.2
2017-Aug-16 23:01N 51°19' E 004°19'2 3.9
2017-Aug-16 22:30N 51°21' E 004°17'0 0.0
2017-Aug-16 22:01N 51°21' E 004°17'0 0.5
2017-Aug-16 21:31N 51°21' E 004°17'1 1.2
2017-Aug-16 21:00N 51°20' E 004°17'3 5.0
2017-Aug-16 20:31N 51°18' E 004°16'1 2.2
2017-Aug-16 20:00N 51°17' E 004°15'0 0.0
2017-Aug-16 19:30N 51°17' E 004°15'1 1.4
2017-Aug-16 19:00N 51°17' E 004°14'1 1.2
2017-Aug-16 18:26N 51°16' E 004°13'0 0.0
2017-Aug-16 17:59N 51°16' E 004°13'0 0.0
2017-Aug-16 17:26N 51°16' E 004°13'0 0.0
2017-Aug-16 16:56N 51°16' E 004°13'0 0.0
2017-Aug-16 16:29N 51°16' E 004°13'0 0.0
2017-Aug-16 15:59N 51°16' E 004°13'0 0.0
2017-Aug-16 15:14N 51°16' E 004°13'0 0.0
2017-Aug-16 14:50N 51°16' E 004°13'0 0.0
2017-Aug-16 14:26N 51°16' E 004°13'0 0.0
2017-Aug-16 13:59N 51°16' E 004°13'0 0.0
2017-Aug-16 13:26N 51°16' E 004°13'0 0.0
2017-Aug-16 12:53N 51°16' E 004°13'0 0.0
2017-Aug-16 12:26N 51°16' E 004°13'0 0.0
2017-Aug-16 11:56N 51°16' E 004°13'0 0.0
2017-Aug-16 11:23N 51°16' E 004°13'0 0.0
2017-Aug-16 10:53N 51°16' E 004°13'0 0.0
2017-Aug-16 10:17N 51°16' E 004°13'0 0.0
2017-Aug-16 09:59N 51°16' E 004°13'0 0.0
2017-Aug-16 09:29N 51°16' E 004°13'0 0.0
2017-Aug-16 08:59N 51°16' E 004°13'0 0.0
2017-Aug-16 08:23N 51°16' E 004°13'0 0.0
2017-Aug-16 07:59N 51°16' E 004°13'0 0.0
2017-Aug-16 07:29N 51°16' E 004°13'0 0.0
2017-Aug-16 06:56N 51°16' E 004°13'0 0.0
2017-Aug-16 06:29N 51°16' E 004°13'0 0.0
2017-Aug-16 05:53N 51°16' E 004°13'0 0.0
2017-Aug-16 05:29N 51°16' E 004°13'0 0.0
2017-Aug-16 04:59N 51°16' E 004°13'0 0.0
2017-Aug-16 04:23N 51°16' E 004°13'0 0.0
2017-Aug-16 03:56N 51°16' E 004°13'0 0.0
2017-Aug-16 03:26N 51°16' E 004°13'0 0.0
2017-Aug-16 02:59N 51°16' E 004°13'0 0.0
2017-Aug-16 02:26N 51°16' E 004°13'0 0.0
2017-Aug-16 01:56N 51°16' E 004°13'0 0.0
2017-Aug-16 01:23N 51°16' E 004°13'0 0.0
2017-Aug-16 00:59N 51°16' E 004°13'0 0.0
2017-Aug-16 00:29N 51°16' E 004°13'0 0.0
2017-Aug-15 23:53N 51°16' E 004°13'0 0.0
2017-Aug-15 23:29N 51°16' E 004°13'0 0.0
2017-Aug-15 22:41N 51°16' E 004°13'0 0.0
2017-Aug-15 22:23N 51°16' E 004°13'0 0.0
2017-Aug-15 21:59N 51°16' E 004°13'0 0.0
2017-Aug-15 21:29N 51°16' E 004°13'0 0.0
2017-Aug-15 20:59N 51°16' E 004°13'0 0.0
2017-Aug-15 20:23N 51°16' E 004°13'0 0.0
2017-Aug-15 19:56N 51°16' E 004°13'0 0.0
2017-Aug-15 19:26N 51°16' E 004°13'0 0.0
2017-Aug-15 18:59N 51°16' E 004°13'0 0.0
2017-Aug-15 18:29N 51°16' E 004°13'0 0.0
2017-Aug-15 17:47N 51°16' E 004°13'0 0.0
2017-Aug-15 17:29N 51°16' E 004°13'0 0.0
2017-Aug-15 16:59N 51°16' E 004°13'0 0.0
2017-Aug-15 16:26N 51°16' E 004°13'0 0.0
2017-Aug-15 15:53N 51°16' E 004°13'0 0.0
2017-Aug-15 15:29N 51°16' E 004°13'0 0.0
2017-Aug-15 14:59N 51°16' E 004°13'0 0.0
2017-Aug-15 14:17N 51°16' E 004°13'0 0.0
2017-Aug-15 13:53N 51°16' E 004°13'0 0.0
2017-Aug-15 13:26N 51°16' E 004°13'0 0.0
2017-Aug-15 12:59N 51°16' E 004°13'0 0.0
2017-Aug-15 12:29N 51°16' E 004°13'0 0.0
2017-Aug-15 11:50N 51°16' E 004°13'0 0.0
2017-Aug-15 11:29N 51°16' E 004°13'0 0.0
2017-Aug-15 10:57N 51°16' E 004°13'1 1.6
2017-Aug-15 10:04N 51°17' E 004°15'0 0.0
2017-Aug-15 10:00N 51°17' E 004°15'2 3.3
2017-Aug-15 09:30N 51°18' E 004°16'3 6.3
2017-Aug-15 09:00N 51°21' E 004°14'4 7.1
2017-Aug-15 08:30N 51°23' E 004°09'5 9.7
2017-Aug-15 08:00N 51°24' E 004°02'3 5.6
2017-Aug-15 07:30N 51°24' E 003°57'611.3
2017-Aug-15 07:00N 51°21' E 003°50'510.6
2017-Aug-15 06:30N 51°23' E 003°43'5 9.7
2017-Aug-15 06:00N 51°26' E 003°36'4 8.1
2017-Aug-15 05:30N 51°25' E 003°30'612.4
2017-Aug-15 05:00N 51°24' E 003°20'714.6
2017-Aug-15 04:31N 51°24' E 003°08'713.4
2017-Aug-15 04:00N 51°23' E 002°57'713.7
2017-Aug-15 03:31N 51°22' E 002°47'611.7
2017-Aug-15 03:01N 51°22' E 002°37'2 4.5
2017-Aug-15 02:30N 51°24' E 002°36'0 0.0
2017-Aug-15 02:00N 51°24' E 002°36'0 0.0
2017-Aug-15 01:30N 51°24' E 002°36'0 0.0
2017-Aug-15 01:00N 51°24' E 002°36'0 0.0
2017-Aug-15 00:30N 51°24' E 002°36'0 0.0
2017-Aug-15 00:00N 51°24' E 002°36'0 0.1
2017-Aug-14 23:30N 51°24' E 002°36'1 1.0
2017-Aug-14 23:00N 51°24' E 002°35'3 6.2
2017-Aug-14 22:31N 51°22' E 002°31'510.6
2017-Aug-14 22:01N 51°20' E 002°23'3 5.3
2017-Aug-14 21:30N 51°19' E 002°19'3 5.1
2017-Aug-14 21:00N 51°18' E 002°16'3 5.4
2017-Aug-14 20:30N 51°17' E 002°12'3 5.8
2017-Aug-14 20:01N 51°15' E 002°08'3 6.3
2017-Aug-14 19:30N 51°13' E 002°04'4 8.2
2017-Aug-14 19:00N 51°11' E 001°59'611.9
2017-Aug-14 18:30N 51°08' E 001°51'713.5
2017-Aug-14 18:00N 51°03' E 001°42'714.0
2017-Aug-14 17:31N 50°58' E 001°35'714.3
2017-Aug-14 17:01N 50°52' E 001°28'713.9
2017-Aug-14 16:30N 50°46' E 001°24'714.0
2017-Aug-14 16:00N 50°40' E 001°18'714.4
2017-Aug-14 15:30N 50°36' E 001°09'714.3
2017-Aug-14 15:00N 50°31' E 001°00'714.1
2017-Aug-14 14:30N 50°29' E 000°50'714.4
2017-Aug-14 14:00N 50°27' E 000°39'914.8
2017-Aug-14 13:23N 50°25' E 000°25'615.0
2017-Aug-14 13:00N 50°23' E 000°16'815.3
2017-Aug-14 12:30N 50°21' E 000°05'715.0
2017-Aug-14 12:00N 50°19' W 000°06'714.9
2017-Aug-14 11:30N 50°17' W 000°18'714.9
2017-Aug-14 11:00N 50°16' W 000°29'714.6
2017-Aug-14 10:30N 50°14' W 000°40'714.2
2017-Aug-14 09:59N 50°12' W 000°52'613.6
2017-Aug-14 09:31N 50°10' W 001°01'713.2
2017-Aug-14 09:00N 50°09' W 001°11'612.2
2017-Aug-14 08:31N 50°07' W 001°21'611.7
2017-Aug-14 08:00N 50°06' W 001°29'611.2
2017-Aug-14 07:30N 50°04' W 001°38'510.6
2017-Aug-14 07:00N 50°03' W 001°46'510.3
2017-Aug-14 06:30N 50°01' W 001°53'5 9.9
2017-Aug-14 06:00N 49°60' W 002°01'7 9.9
2017-Aug-14 05:17N 49°58' W 002°11'310.2
2017-Aug-14 05:00N 49°57' W 002°16'710.8
2017-Aug-14 04:21N 49°55' W 002°26'411.6
2017-Aug-14 04:00N 49°54' W 002°32'611.8
2017-Aug-14 03:30N 49°51' W 002°41'612.4
2017-Aug-14 03:00N 49°49' W 002°49'612.8
2017-Aug-14 02:30N 49°46' W 002°58'713.1
2017-Aug-14 02:00N 49°43' W 003°07'713.2
2017-Aug-14 01:30N 49°40' W 003°16'713.3
2017-Aug-14 01:00N 49°37' W 003°26'713.4
2017-Aug-14 00:29N 49°34' W 003°35'713.6
2017-Aug-13 23:59N 49°31' W 003°45'613.5
2017-Aug-13 23:30N 49°28' W 003°54'713.8
2017-Aug-13 23:00N 49°25' W 004°03'714.1
2017-Aug-13 22:30N 49°21' W 004°12'814.2
2017-Aug-13 21:57N 49°16' W 004°22'614.2
2017-Aug-13 21:30N 49°13' W 004°30'714.5
2017-Aug-13 21:00N 49°10' W 004°40'814.9
2017-Aug-13 20:30N 49°06' W 004°50'714.7
2017-Aug-13 20:00N 49°03' W 004°60'714.9
2017-Aug-13 19:30N 48°59' W 005°10'814.7
2017-Aug-13 18:59N 48°55' W 005°20'714.6
2017-Aug-13 18:30N 48°52' W 005°29'813.9
2017-Aug-13 17:57N 48°47' W 005°38'1014.3
2017-Aug-13 17:17N 48°38' W 005°44'714.1
2017-Aug-13 16:46N 48°32' W 005°49'37413.2
2017-Aug-12 12:23N 42°60' W 009°58'712.8
2017-Aug-12 11:50N 42°53' W 009°58'412.8
2017-Aug-12 11:30N 42°49' W 009°57'  
Track history (hours):
 
Tides and Currents Weather Stations Pressure Air Temp Water Temp Dewpoint Dewpoint Depression Visibility Wind Speed Wind Dir Waves Ship Positions

Chemroad Wing

Last reported at 2017-Aug-22 10:35 UTC. Time now 2017-Aug-22 11:09 UTC.
Position N 48°50' W 005°56'.

Length 170 m; draft 6.7 m.

Type: Ship. MMSI: 357740000.

Date/timePositionNaut miles runAvg speedWind from/ knotsBaromVisibWave heightAir tempDewpointWater temp
2017-Aug-22 10:35N 48°50' W 005°56'415.3
2017-Aug-22 10:18N 48°53' W 005°50'515.7
2017-Aug-22 10:00N 48°55' W 005°44'815.6
2017-Aug-22 09:30N 48°59' W 005°34'815.4
2017-Aug-22 09:01N 49°03' W 005°24'1414.9
2017-Aug-22 08:06N 49°10' W 005°06'514.5
2017-Aug-22 07:45N 49°13' W 004°60'414.1
2017-Aug-22 07:28N 49°15' W 004°54'2012.9
2017-Aug-22 05:56N 49°25' W 004°28'812.2
2017-Aug-22 05:17N 49°29' W 004°17'1012.3
2017-Aug-22 04:30N 49°34' W 004°05'612.7
2017-Aug-22 04:00N 49°37' W 003°56'713.3
2017-Aug-22 03:31N 49°40' W 003°48'814.2
2017-Aug-22 02:58N 49°44' W 003°37'715.1
2017-Aug-22 02:30N 49°47' W 003°28'815.6
2017-Aug-22 02:00N 49°51' W 003°18'816.3
2017-Aug-22 01:30N 49°56' W 003°07'816.7
2017-Aug-22 01:00N 49°59' W 002°55'816.8
2017-Aug-22 00:30N 50°02' W 002°43'816.5
2017-Aug-22 00:00N 50°04' W 002°30'815.8
2017-Aug-21 23:30N 50°06' W 002°19'714.9
2017-Aug-21 23:01N 50°08' W 002°08'713.8
2017-Aug-21 22:30N 50°10' W 001°57'612.8
2017-Aug-21 22:00N 50°12' W 001°47'612.0
2017-Aug-21 21:30N 50°13' W 001°38'611.4
2017-Aug-21 21:00N 50°15' W 001°30'510.8
2017-Aug-21 20:30N 50°16' W 001°21'510.7
2017-Aug-21 20:00N 50°17' W 001°13'510.2
2017-Aug-21 19:30N 50°19' W 001°06'510.4
2017-Aug-21 19:00N 50°20' W 000°58'611.7
2017-Aug-21 18:30N 50°21' W 000°49'612.6
2017-Aug-21 18:00N 50°23' W 000°39'713.4
2017-Aug-21 17:30N 50°25' W 000°29'714.4
2017-Aug-21 17:00N 50°27' W 000°18'815.1
2017-Aug-21 16:31N 50°29' W 000°07'815.5
2017-Aug-21 16:00N 50°31' E 000°05'915.9
2017-Aug-21 15:26N 50°33' E 000°19'715.9
2017-Aug-21 15:00N 50°35' E 000°29'815.4
2017-Aug-21 14:30N 50°39' E 000°40'715.1
2017-Aug-21 14:01N 50°42' E 000°50'714.3
2017-Aug-21 13:31N 50°46' E 000°59'1712.7
2017-Aug-21 12:08N 50°59' E 001°19'311.2
2017-Aug-21 11:54N 51°01' E 001°21'411.2
2017-Aug-21 11:30N 51°04' E 001°27'611.7
2017-Aug-21 11:00N 51°07' E 001°34'612.4
2017-Aug-21 10:30N 51°11' E 001°42'612.9
2017-Aug-21 10:01N 51°16' E 001°48'714.4
2017-Aug-21 09:30N 51°23' E 001°53'815.6
2017-Aug-21 09:00N 51°29' E 002°00'815.9
2017-Aug-21 08:30N 51°35' E 002°09'816.1
2017-Aug-21 08:00N 51°41' E 002°18'4920.2
2017-Aug-21 05:34N 52°03' E 003°29'0 0.0
2017-Aug-21 05:29N 52°03' E 003°29'0 0.0
2017-Aug-21 05:00N 52°03' E 003°29'0 0.0
2017-Aug-21 04:30N 52°03' E 003°29'612.3
2017-Aug-21 04:00N 52°03' E 003°39'713.2
2017-Aug-21 03:30N 52°03' E 003°50'4 7.9
2017-Aug-21 03:00N 52°02' E 003°56'612.1
2017-Aug-21 02:30N 51°59' E 004°05'611.3
2017-Aug-21 02:00N 51°56' E 004°13'5 9.6
2017-Aug-21 01:30N 51°54' E 004°19'1 1.8
2017-Aug-21 01:00N 51°53' E 004°21'0 0.0
2017-Aug-21 00:30N 51°53' E 004°21'0 0.0
2017-Aug-21 00:00N 51°53' E 004°21'0 0.0
2017-Aug-20 23:30N 51°53' E 004°21'0 0.0
2017-Aug-20 23:00N 51°53' E 004°21'0 0.0
2017-Aug-20 22:30N 51°53' E 004°21'0 0.0
2017-Aug-20 22:00N 51°53' E 004°21'0 0.0
2017-Aug-20 21:30N 51°53' E 004°21'0 0.0
2017-Aug-20 21:00N 51°53' E 004°21'0 0.0
2017-Aug-20 20:30N 51°53' E 004°21'0 0.0
2017-Aug-20 20:00N 51°53' E 004°21'0 0.0
2017-Aug-20 19:30N 51°53' E 004°21'0 0.0
2017-Aug-20 19:00N 51°53' E 004°21'0 0.0
2017-Aug-20 18:30N 51°53' E 004°21'0 0.0
2017-Aug-20 18:00N 51°53' E 004°21'0 0.0
2017-Aug-20 17:30N 51°53' E 004°21'0 0.0
2017-Aug-20 17:00N 51°53' E 004°21'0 0.0
2017-Aug-20 16:29N 51°53' E 004°21'0 0.0
2017-Aug-20 16:00N 51°53' E 004°21'0 0.0
2017-Aug-20 15:30N 51°53' E 004°21'0 0.0
2017-Aug-20 15:00N 51°53' E 004°21'0 0.0
2017-Aug-20 14:30N 51°53' E 004°21'0 0.0
2017-Aug-20 14:00N 51°53' E 004°21'0 0.0
2017-Aug-20 13:30N 51°53' E 004°21'0 0.0
2017-Aug-20 13:00N 51°53' E 004°21'0 0.0
2017-Aug-20 12:30N 51°53' E 004°21'0 0.0
2017-Aug-20 12:00N 51°53' E 004°21'0 0.0
2017-Aug-20 11:30N 51°53' E 004°21'0 0.0
2017-Aug-20 11:00N 51°53' E 004°21'0 0.0
2017-Aug-20 10:30N 51°53' E 004°21'0 0.0
2017-Aug-20 10:00N 51°53' E 004°21'0 0.0
2017-Aug-20 09:30N 51°53' E 004°21'0 0.0
2017-Aug-20 09:00N 51°53' E 004°21'0 0.0
2017-Aug-20 08:30N 51°53' E 004°21'0 0.0
2017-Aug-20 08:00N 51°53' E 004°21'0 0.0
2017-Aug-20 07:30N 51°53' E 004°21'0 0.0
2017-Aug-20 07:00N 51°53' E 004°21'0 0.0
2017-Aug-20 06:30N 51°53' E 004°21'0 0.0
2017-Aug-20 06:00N 51°53' E 004°21'0 0.0
2017-Aug-20 05:30N 51°53' E 004°21'0 0.0
2017-Aug-20 05:00N 51°53' E 004°21'0 0.0
2017-Aug-20 04:30N 51°53' E 004°21'0 0.0
2017-Aug-20 03:59N 51°53' E 004°21'0 0.0
2017-Aug-20 03:30N 51°53' E 004°21'0 0.0
2017-Aug-20 03:00N 51°53' E 004°21'0 0.0
2017-Aug-20 02:30N 51°53' E 004°21'0 0.0
2017-Aug-20 02:00N 51°53' E 004°21'0 0.0
2017-Aug-20 01:30N 51°53' E 004°21'0 0.0
2017-Aug-20 01:00N 51°53' E 004°21'0 0.0
2017-Aug-20 00:30N 51°53' E 004°21'0 0.0
2017-Aug-20 00:00N 51°53' E 004°21'0 0.0
2017-Aug-19 23:30N 51°53' E 004°21'0 0.0
2017-Aug-19 23:00N 51°53' E 004°21'0 0.0
2017-Aug-19 22:30N 51°53' E 004°21'0 0.0
2017-Aug-19 22:00N 51°53' E 004°21'0 0.0
2017-Aug-19 21:30N 51°53' E 004°21'0 0.0
2017-Aug-19 21:00N 51°53' E 004°21'0 0.0
2017-Aug-19 20:30N 51°53' E 004°21'0 0.0
2017-Aug-19 20:00N 51°53' E 004°21'0 0.0
2017-Aug-19 19:30N 51°53' E 004°21'0 0.0
2017-Aug-19 19:00N 51°53' E 004°21'0 0.0
2017-Aug-19 18:30N 51°53' E 004°21'0 0.0
2017-Aug-19 18:00N 51°53' E 004°21'0 0.0
2017-Aug-19 17:30N 51°53' E 004°21'0 0.0
2017-Aug-19 17:00N 51°53' E 004°21'0 0.0
2017-Aug-19 16:30N 51°53' E 004°21'0 0.0
2017-Aug-19 16:00N 51°53' E 004°21'0 0.0
2017-Aug-19 15:30N 51°53' E 004°21'0 0.0
2017-Aug-19 15:00N 51°53' E 004°21'0 0.0
2017-Aug-19 14:00N 51°53' E 004°21'0 0.0
2017-Aug-19 13:30N 51°53' E 004°21'0 0.0
2017-Aug-19 13:00N 51°53' E 004°21'0 0.0
2017-Aug-19 12:30N 51°53' E 004°21'0 0.0
2017-Aug-19 12:00N 51°53' E 004°21'0 0.0
2017-Aug-19 11:30N 51°53' E 004°21'0 0.0
2017-Aug-19 11:00N 51°53' E 004°21'0 0.0
2017-Aug-19 10:30N 51°53' E 004°21'0 0.0
2017-Aug-19 10:00N 51°53' E 004°21'0 0.0
2017-Aug-19 09:30N 51°53' E 004°21'0 0.0
2017-Aug-19 09:00N 51°53' E 004°21'0 0.0
2017-Aug-19 08:31N 51°53' E 004°21'2 3.9
2017-Aug-19 08:01N 51°54' E 004°17'5 9.1
2017-Aug-19 07:31N 51°56' E 004°12'5 9.2
2017-Aug-19 07:01N 51°59' E 004°05'510.5
2017-Aug-19 06:31N 51°60' E 003°57'5 9.4
2017-Aug-19 06:01N 51°59' E 003°49'4 8.6
2017-Aug-19 05:31N 51°58' E 003°42'4 7.6
2017-Aug-19 05:00N 51°57' E 003°37'3 6.0
2017-Aug-19 04:31N 51°56' E 003°32'3 5.8
2017-Aug-19 04:00N 51°55' E 003°27'17 7.9
2017-Aug-19 01:52N 51°51' E 003°01'614.0
2017-Aug-19 01:29N 51°49' E 002°53'714.2
2017-Aug-19 00:58N 51°47' E 002°41'814.2
2017-Aug-19 00:26N 51°43' E 002°32'614.9
2017-Aug-19 00:00N 51°38' E 002°25'815.2
2017-Aug-18 23:30N 51°33' E 002°17'815.5
2017-Aug-18 23:00N 51°27' E 002°08'5 9.5
2017-Aug-18 22:30N 51°22' E 002°11'510.8
2017-Aug-18 22:00N 51°21' E 002°19'510.8
2017-Aug-18 21:30N 51°22' E 002°28'510.7
2017-Aug-18 21:01N 51°23' E 002°36'510.6
2017-Aug-18 20:30N 51°23' E 002°45'510.0
2017-Aug-18 20:01N 51°23' E 002°53'611.5
2017-Aug-18 19:30N 51°24' E 003°02'611.4
2017-Aug-18 19:00N 51°24' E 003°11'611.8
2017-Aug-18 18:31N 51°25' E 003°20'611.4
2017-Aug-18 18:01N 51°25' E 003°29'4 8.2
2017-Aug-18 17:31N 51°26' E 003°36'4 8.1
2017-Aug-18 17:00N 51°25' E 003°42'611.8
2017-Aug-18 16:30N 51°21' E 003°48'612.1
2017-Aug-18 16:01N 51°24' E 003°57'3 6.3
2017-Aug-18 15:31N 51°24' E 004°02'611.0
2017-Aug-18 15:00N 51°24' E 004°11'611.1
2017-Aug-18 14:31N 51°19' E 004°16'4 3.6
2017-Aug-18 13:30N 51°17' E 004°20'0 0.8
2017-Aug-18 13:00N 51°16' E 004°20'2 3.2
2017-Aug-18 12:30N 51°15' E 004°21'0 0.1
2017-Aug-18 11:57N 51°15' E 004°21'0 0.0
2017-Aug-18 11:30N 51°15' E 004°21'0 0.0
2017-Aug-18 11:00N 51°15' E 004°21'0 0.0
2017-Aug-18 10:30N 51°15' E 004°21'0 0.0
2017-Aug-18 10:00N 51°15' E 004°21'0 0.0
2017-Aug-18 09:30N 51°15' E 004°21'0 0.0
2017-Aug-18 09:00N 51°15' E 004°21'0 0.0
2017-Aug-18 08:30N 51°15' E 004°21'0 0.0
2017-Aug-18 08:00N 51°15' E 004°21'0 0.0
2017-Aug-18 07:30N 51°15' E 004°21'0 0.0
2017-Aug-18 07:00N 51°15' E 004°21'0 0.0
2017-Aug-18 06:30N 51°15' E 004°21'0 0.0
2017-Aug-18 06:00N 51°15' E 004°21'0 0.0
2017-Aug-18 05:30N 51°15' E 004°21'0 0.0
2017-Aug-18 05:00N 51°15' E 004°21'0 0.0
2017-Aug-18 04:30N 51°15' E 004°21'0 0.0
2017-Aug-18 04:00N 51°15' E 004°21'0 0.0
2017-Aug-18 03:30N 51°15' E 004°21'0 0.0
2017-Aug-18 03:00N 51°15' E 004°21'0 0.0
2017-Aug-18 02:30N 51°15' E 004°21'0 0.0
2017-Aug-18 02:00N 51°15' E 004°21'0 0.0
2017-Aug-18 01:30N 51°15' E 004°21'0 0.0
2017-Aug-18 01:00N 51°15' E 004°21'0 0.0
2017-Aug-18 00:30N 51°15' E 004°21'0 0.0
2017-Aug-18 00:00N 51°15' E 004°21'0 0.0
2017-Aug-17 23:30N 51°15' E 004°21'0 0.0
2017-Aug-17 23:00N 51°15' E 004°21'0 0.0
2017-Aug-17 22:30N 51°15' E 004°21'0 0.0
2017-Aug-17 22:00N 51°15' E 004°21'0 0.0
2017-Aug-17 21:30N 51°15' E 004°21'0 0.0
2017-Aug-17 21:00N 51°15' E 004°21'0 0.0
2017-Aug-17 20:30N 51°15' E 004°21'0 0.0
2017-Aug-17 20:00N 51°15' E 004°21'0 0.0
2017-Aug-17 19:30N 51°15' E 004°21'0 0.0
2017-Aug-17 19:00N 51°15' E 004°21'0 0.0
2017-Aug-17 18:30N 51°15' E 004°21'0 0.0
2017-Aug-17 18:00N 51°15' E 004°21'0 0.0
2017-Aug-17 17:30N 51°15' E 004°21'0 0.0
2017-Aug-17 17:00N 51°15' E 004°21'0 0.0
2017-Aug-17 16:30N 51°15' E 004°21'0 0.0
2017-Aug-17 16:00N 51°15' E 004°21'0 0.0
2017-Aug-17 15:30N 51°15' E 004°21'0 0.1
2017-Aug-17 15:00N 51°15' E 004°21'1 1.0
2017-Aug-17 14:28N 51°15' E 004°22'0 0.0
2017-Aug-17 13:55N 51°15' E 004°22'0 0.0
2017-Aug-17 13:25N 51°15' E 004°22'0 0.0
2017-Aug-17 12:58N 51°15' E 004°22'0 0.0
2017-Aug-17 12:28N 51°15' E 004°22'0 0.0
2017-Aug-17 11:58N 51°15' E 004°22'0 0.0
2017-Aug-17 11:22N 51°15' E 004°22'0 0.0
2017-Aug-17 10:55N 51°15' E 004°22'0 0.0
2017-Aug-17 10:28N 51°15' E 004°22'0 0.0
2017-Aug-17 09:58N 51°15' E 004°22'0 0.0
2017-Aug-17 09:22N 51°15' E 004°22'0 0.0
2017-Aug-17 08:55N 51°15' E 004°22'0 0.0
2017-Aug-17 08:28N 51°15' E 004°22'0 0.0
2017-Aug-17 07:58N 51°15' E 004°22'0 0.0
2017-Aug-17 07:25N 51°15' E 004°22'0 0.0
2017-Aug-17 06:55N 51°15' E 004°22'0 0.0
2017-Aug-17 06:19N 51°15' E 004°22'0 0.0
2017-Aug-17 05:58N 51°15' E 004°22'0 0.0
2017-Aug-17 05:25N 51°15' E 004°22'0 0.0
2017-Aug-17 04:58N 51°15' E 004°22'0 0.0
2017-Aug-17 04:28N 51°15' E 004°22'0 0.0
2017-Aug-17 03:58N 51°15' E 004°22'0 0.0
2017-Aug-17 03:25N 51°15' E 004°22'0 0.0
2017-Aug-17 02:58N 51°15' E 004°22'0 0.0
2017-Aug-17 02:28N 51°15' E 004°22'0 0.0
2017-Aug-17 01:58N 51°15' E 004°22'0 0.0
2017-Aug-17 01:28N 51°15' E 004°22'0 0.0
2017-Aug-17 00:58N 51°15' E 004°22'0 0.0
2017-Aug-17 00:28N 51°15' E 004°22'0 0.0
2017-Aug-17 00:00N 51°15' E 004°22'1 2.4
2017-Aug-16 23:30N 51°16' E 004°20'3 6.2
2017-Aug-16 23:01N 51°19' E 004°19'2 3.9
2017-Aug-16 22:30N 51°21' E 004°17'0 0.0
2017-Aug-16 22:01N 51°21' E 004°17'0 0.5
2017-Aug-16 21:31N 51°21' E 004°17'1 1.2
2017-Aug-16 21:00N 51°20' E 004°17'3 5.0
2017-Aug-16 20:31N 51°18' E 004°16'1 2.2
2017-Aug-16 20:00N 51°17' E 004°15'0 0.0
2017-Aug-16 19:30N 51°17' E 004°15'1 1.4
2017-Aug-16 19:00N 51°17' E 004°14'1 1.2
2017-Aug-16 18:26N 51°16' E 004°13'0 0.0
2017-Aug-16 17:59N 51°16' E 004°13'0 0.0
2017-Aug-16 17:26N 51°16' E 004°13'0 0.0
2017-Aug-16 16:56N 51°16' E 004°13'0 0.0
2017-Aug-16 16:29N 51°16' E 004°13'0 0.0
2017-Aug-16 15:59N 51°16' E 004°13'0 0.0
2017-Aug-16 15:14N 51°16' E 004°13'0 0.0
2017-Aug-16 14:50N 51°16' E 004°13'0 0.0
2017-Aug-16 14:26N 51°16' E 004°13'0 0.0
2017-Aug-16 13:59N 51°16' E 004°13'0 0.0
2017-Aug-16 13:26N 51°16' E 004°13'0 0.0
2017-Aug-16 12:53N 51°16' E 004°13'0 0.0
2017-Aug-16 12:26N 51°16' E 004°13'0 0.0
2017-Aug-16 11:56N 51°16' E 004°13'0 0.0
2017-Aug-16 11:23N 51°16' E 004°13'0 0.0
2017-Aug-16 10:53N 51°16' E 004°13'0 0.0
2017-Aug-16 10:17N 51°16' E 004°13'0 0.0
2017-Aug-16 09:59N 51°16' E 004°13'0 0.0
2017-Aug-16 09:29N 51°16' E 004°13'0 0.0
2017-Aug-16 08:59N 51°16' E 004°13'0 0.0
2017-Aug-16 08:23N 51°16' E 004°13'0 0.0
2017-Aug-16 07:59N 51°16' E 004°13'0 0.0
2017-Aug-16 07:29N 51°16' E 004°13'0 0.0
2017-Aug-16 06:56N 51°16' E 004°13'0 0.0
2017-Aug-16 06:29N 51°16' E 004°13'0 0.0
2017-Aug-16 05:53N 51°16' E 004°13'0 0.0
2017-Aug-16 05:29N 51°16' E 004°13'0 0.0
2017-Aug-16 04:59N 51°16' E 004°13'0 0.0
2017-Aug-16 04:23N 51°16' E 004°13'0 0.0
2017-Aug-16 03:56N 51°16' E 004°13'0 0.0
2017-Aug-16 03:26N 51°16' E 004°13'0 0.0
2017-Aug-16 02:59N 51°16' E 004°13'0 0.0
2017-Aug-16 02:26N 51°16' E 004°13'0 0.0
2017-Aug-16 01:56N 51°16' E 004°13'0 0.0
2017-Aug-16 01:23N 51°16' E 004°13'0 0.0
2017-Aug-16 00:59N 51°16' E 004°13'0 0.0
2017-Aug-16 00:29N 51°16' E 004°13'0 0.0
2017-Aug-15 23:53N 51°16' E 004°13'0 0.0
2017-Aug-15 23:29N 51°16' E 004°13'0 0.0
2017-Aug-15 22:41N 51°16' E 004°13'0 0.0
2017-Aug-15 22:23N 51°16' E 004°13'0 0.0
2017-Aug-15 21:59N 51°16' E 004°13'0 0.0
2017-Aug-15 21:29N 51°16' E 004°13'0 0.0
2017-Aug-15 20:59N 51°16' E 004°13'0 0.0
2017-Aug-15 20:23N 51°16' E 004°13'0 0.0
2017-Aug-15 19:56N 51°16' E 004°13'0 0.0
2017-Aug-15 19:26N 51°16' E 004°13'0 0.0
2017-Aug-15 18:59N 51°16' E 004°13'0 0.0
2017-Aug-15 18:29N 51°16' E 004°13'0 0.0
2017-Aug-15 17:47N 51°16' E 004°13'0 0.0
2017-Aug-15 17:29N 51°16' E 004°13'0 0.0
2017-Aug-15 16:59N 51°16' E 004°13'0 0.0
2017-Aug-15 16:26N 51°16' E 004°13'0 0.0
2017-Aug-15 15:53N 51°16' E 004°13'0 0.0
2017-Aug-15 15:29N 51°16' E 004°13'0 0.0
2017-Aug-15 14:59N 51°16' E 004°13'0 0.0
2017-Aug-15 14:17N 51°16' E 004°13'0 0.0
2017-Aug-15 13:53N 51°16' E 004°13'0 0.0
2017-Aug-15 13:26N 51°16' E 004°13'0 0.0
2017-Aug-15 12:59N 51°16' E 004°13'0 0.0
2017-Aug-15 12:29N 51°16' E 004°13'0 0.0
2017-Aug-15 11:50N 51°16' E 004°13'0 0.0
2017-Aug-15 11:29N 51°16' E 004°13'0 0.0
2017-Aug-15 10:57N 51°16' E 004°13'1 1.6
2017-Aug-15 10:04N 51°17' E 004°15'0 0.0
2017-Aug-15 10:00N 51°17' E 004°15'2 3.3
2017-Aug-15 09:30N 51°18' E 004°16'3 6.3
2017-Aug-15 09:00N 51°21' E 004°14'4 7.1
2017-Aug-15 08:30N 51°23' E 004°09'5 9.7
2017-Aug-15 08:00N 51°24' E 004°02'3 5.6
2017-Aug-15 07:30N 51°24' E 003°57'611.3
2017-Aug-15 07:00N 51°21' E 003°50'510.6
2017-Aug-15 06:30N 51°23' E 003°43'5 9.7
2017-Aug-15 06:00N 51°26' E 003°36'4 8.1
2017-Aug-15 05:30N 51°25' E 003°30'612.4
2017-Aug-15 05:00N 51°24' E 003°20'714.6
2017-Aug-15 04:31N 51°24' E 003°08'713.4
2017-Aug-15 04:00N 51°23' E 002°57'713.7
2017-Aug-15 03:31N 51°22' E 002°47'611.7
2017-Aug-15 03:01N 51°22' E 002°37'2 4.5
2017-Aug-15 02:30N 51°24' E 002°36'0 0.0
2017-Aug-15 02:00N 51°24' E 002°36'0 0.0
2017-Aug-15 01:30N 51°24' E 002°36'0 0.0
2017-Aug-15 01:00N 51°24' E 002°36'0 0.0
2017-Aug-15 00:30N 51°24' E 002°36'0 0.0
2017-Aug-15 00:00N 51°24' E 002°36'0 0.1
2017-Aug-14 23:30N 51°24' E 002°36'1 1.0
2017-Aug-14 23:00N 51°24' E 002°35'3 6.2
2017-Aug-14 22:31N 51°22' E 002°31'510.6
2017-Aug-14 22:01N 51°20' E 002°23'3 5.3
2017-Aug-14 21:30N 51°19' E 002°19'3 5.1
2017-Aug-14 21:00N 51°18' E 002°16'3 5.4
2017-Aug-14 20:30N 51°17' E 002°12'3 5.8
2017-Aug-14 20:01N 51°15' E 002°08'3 6.3
2017-Aug-14 19:30N 51°13' E 002°04'4 8.2
2017-Aug-14 19:00N 51°11' E 001°59'611.9
2017-Aug-14 18:30N 51°08' E 001°51'713.5
2017-Aug-14 18:00N 51°03' E 001°42'714.0
2017-Aug-14 17:31N 50°58' E 001°35'714.3
2017-Aug-14 17:01N 50°52' E 001°28'713.9
2017-Aug-14 16:30N 50°46' E 001°24'714.0
2017-Aug-14 16:00N 50°40' E 001°18'714.4
2017-Aug-14 15:30N 50°36' E 001°09'714.3
2017-Aug-14 15:00N 50°31' E 001°00'714.1
2017-Aug-14 14:30N 50°29' E 000°50'714.4
2017-Aug-14 14:00N 50°27' E 000°39'914.8
2017-Aug-14 13:23N 50°25' E 000°25'615.0
2017-Aug-14 13:00N 50°23' E 000°16'815.3
2017-Aug-14 12:30N 50°21' E 000°05'715.0
2017-Aug-14 12:00N 50°19' W 000°06'714.9
2017-Aug-14 11:30N 50°17' W 000°18'714.9
2017-Aug-14 11:00N 50°16' W 000°29'714.6
2017-Aug-14 10:30N 50°14' W 000°40'714.2
2017-Aug-14 09:59N 50°12' W 000°52'613.6
2017-Aug-14 09:31N 50°10' W 001°01'713.2
2017-Aug-14 09:00N 50°09' W 001°11'612.2
2017-Aug-14 08:31N 50°07' W 001°21'611.7
2017-Aug-14 08:00N 50°06' W 001°29'611.2
2017-Aug-14 07:30N 50°04' W 001°38'510.6
2017-Aug-14 07:00N 50°03' W 001°46'510.3
2017-Aug-14 06:30N 50°01' W 001°53'5 9.9
2017-Aug-14 06:00N 49°60' W 002°01'7 9.9
2017-Aug-14 05:17N 49°58' W 002°11'310.2
2017-Aug-14 05:00N 49°57' W 002°16'710.8
2017-Aug-14 04:21N 49°55' W 002°26'411.6
2017-Aug-14 04:00N 49°54' W 002°32'611.8
2017-Aug-14 03:30N 49°51' W 002°41'612.4
2017-Aug-14 03:00N 49°49' W 002°49'612.8
2017-Aug-14 02:30N 49°46' W 002°58'713.1
2017-Aug-14 02:00N 49°43' W 003°07'713.2
2017-Aug-14 01:30N 49°40' W 003°16'713.3
2017-Aug-14 01:00N 49°37' W 003°26'713.4
2017-Aug-14 00:29N 49°34' W 003°35'713.6
2017-Aug-13 23:59N 49°31' W 003°45'613.5
2017-Aug-13 23:30N 49°28' W 003°54'713.8
2017-Aug-13 23:00N 49°25' W 004°03'714.1
2017-Aug-13 22:30N 49°21' W 004°12'814.2
2017-Aug-13 21:57N 49°16' W 004°22'614.2
2017-Aug-13 21:30N 49°13' W 004°30'714.5
2017-Aug-13 21:00N 49°10' W 004°40'814.9
2017-Aug-13 20:30N 49°06' W 004°50'714.7
2017-Aug-13 20:00N 49°03' W 004°60'714.9
2017-Aug-13 19:30N 48°59' W 005°10'814.7
2017-Aug-13 18:59N 48°55' W 005°20'714.6
2017-Aug-13 18:30N 48°52' W 005°29'813.9
2017-Aug-13 17:57N 48°47' W 005°38'1014.3
2017-Aug-13 17:17N 48°38' W 005°44'714.1
2017-Aug-13 16:46N 48°32' W 005°49'37413.2
2017-Aug-12 12:23N 42°60' W 009°58'712.8
2017-Aug-12 11:50N 42°53' W 009°58'412.8
2017-Aug-12 11:30N 42°49' W 009°57'  

Dump ship's entire track history